Davis Sea — WDC2883 — position and weather

sailwx.info

Track history (hours):
 
Tides and Currents Weather Stations Pressure Air Temp Water Temp Dewpoint Dewpoint Depression Visibility Wind Speed Wind Dir Waves Ship Positions

Davis Sea

Owner: Kirby Offshore Marine, LLC, Staten Island, NY. More information available from US FCC via Universal Licensing System and Coast Guard Vessel Documentation Center.

Last reported at 2015-May-14 21:33 UTC. Time now 2015-May-30 18:38 UTC.
Position N 29°32' W 094°54'.
Warning: this ship's position is 15 days out of date.

; draft 2.6 m.

MMSI: 367129540.

Date/timePositionNaut miles runAvg speedWind from/ knotsBaromVisibWave heightAir tempDewpointWater temp
2015-May-14 21:33N 29°32' W 094°54'8 8.5
2015-May-14 20:33N 29°39' W 094°58'8 7.7
2015-May-14 19:33N 29°45' W 095°04'2 1.9
2015-May-14 18:22N 29°47' W 095°04'2 0.8
2015-May-14 16:19N 29°46' W 095°05'1 0.8
2015-May-14 15:33N 29°46' W 095°06'0 0.0
2015-May-14 14:33N 29°46' W 095°06'0 0.0
2015-May-14 13:29N 29°46' W 095°06'0 0.0
2015-May-14 12:32N 29°46' W 095°06'0 0.0
2015-May-14 10:32N 29°46' W 095°06'0 0.0
2015-May-14 09:33N 29°46' W 095°06'0 0.0
2015-May-14 08:26N 29°46' W 095°06'0 0.0
2015-May-14 07:30N 29°46' W 095°06'0 0.0
2015-May-14 06:24N 29°46' W 095°06'0 0.0
2015-May-14 05:16N 29°46' W 095°06'0 0.0
2015-May-14 04:12N 29°46' W 095°06'0 0.0
2015-May-14 03:28N 29°46' W 095°06'0 0.0
2015-May-14 02:32N 29°46' W 095°06'0 0.0
2015-May-14 01:25N 29°46' W 095°06'0 0.0
2015-May-13 20:31N 29°46' W 095°06'0 0.0
2015-May-13 19:23N 29°46' W 095°06'0 0.0
2015-May-13 17:24N 29°46' W 095°06'0 0.0
2015-May-13 15:30N 29°46' W 095°06'0 0.1
2015-May-13 13:33N 29°46' W 095°05'0 0.0
2015-May-13 09:32N 29°46' W 095°06'0 0.0
2015-May-13 08:33N 29°46' W 095°06'0 0.0
2015-May-13 07:33N 29°46' W 095°06'0 0.0
2015-May-13 06:33N 29°46' W 095°06'0 0.0
2015-May-13 05:33N 29°46' W 095°06'0 0.0
2015-May-13 04:31N 29°46' W 095°06'0 0.0
2015-May-13 03:33N 29°46' W 095°06'0 0.0
2015-May-13 00:32N 29°46' W 095°06'0 0.0
2015-May-12 23:33N 29°46' W 095°06'0 0.0
2015-May-12 22:22N 29°46' W 095°06'0 0.0
2015-May-12 20:29N 29°46' W 095°06'0 0.0
2015-May-12 19:30N 29°46' W 095°06'0 0.0
2015-May-12 18:14N 29°46' W 095°06'0 0.0
2015-May-12 17:09N 29°46' W 095°06'0 0.0
2015-May-12 16:28N 29°46' W 095°06'0 0.0
2015-May-12 14:30N 29°46' W 095°06'0 0.0
2015-May-12 13:29N 29°46' W 095°06'0 0.0
2015-May-12 12:28N 29°46' W 095°06'0 0.0
2015-May-12 11:32N 29°46' W 095°06'0 0.0
2015-May-12 10:33N 29°46' W 095°06'0 0.0
2015-May-12 09:31N 29°46' W 095°06'0 0.0
2015-May-12 06:29N 29°46' W 095°06'0 0.0
2015-May-12 05:30N 29°46' W 095°06'0 0.0
2015-May-12 04:30N 29°46' W 095°06'0 0.0
2015-May-12 03:32N 29°46' W 095°06'0 0.0
2015-May-12 02:24N 29°46' W 095°06'0 0.0
2015-May-11 18:32N 29°46' W 095°06'0 0.0
2015-May-11 17:31N 29°46' W 095°06'0 0.0
2015-May-11 16:32N 29°46' W 095°06'2 1.8
2015-May-11 15:32N 29°47' W 095°04'0 0.0
2015-May-11 14:19N 29°47' W 095°04'0 0.6
2015-May-11 13:28N 29°47' W 095°04'1 0.0
2015-May-09 20:23N 29°46' W 095°06'0 0.0
2015-May-09 19:24N 29°46' W 095°06'0 0.0
2015-May-09 18:27N 29°46' W 095°06'0 0.0
2015-May-09 17:28N 29°46' W 095°06'0 0.0
2015-May-09 16:08N 29°46' W 095°06'0 0.0
2015-May-09 15:33N 29°46' W 095°06'0 0.0
2015-May-09 14:30N 29°46' W 095°06'0 0.0
2015-May-09 13:33N 29°46' W 095°06'2 1.7
2015-May-09 12:28N 29°47' W 095°04'1 0.1
2015-May-08 22:31N 29°46' W 095°05'1 0.9
2015-May-08 21:33N 29°47' W 095°04'2 1.6
2015-May-08 20:30N 29°46' W 095°06'0 0.0
2015-May-08 19:12N 29°46' W 095°06'0 0.0
2015-May-08 18:06N 29°46' W 095°06'0 0.0
2015-May-08 17:32N 29°46' W 095°06'0 0.0
2015-May-08 16:33N 29°46' W 095°06'0 0.0
2015-May-08 15:30N 29°46' W 095°06'0 0.0
2015-May-08 14:33N 29°46' W 095°06'0 0.0
2015-May-08 13:27N 29°46' W 095°06'0 0.0
2015-May-08 12:33N 29°46' W 095°06'0 0.0
2015-May-08 11:27N 29°46' W 095°06'0 0.0
2015-May-08 10:28N 29°46' W 095°06'0 0.0
2015-May-08 09:33N 29°46' W 095°06'0 0.0
2015-May-08 08:33N 29°46' W 095°06'0 0.0
2015-May-08 07:33N 29°46' W 095°06'0 0.0
2015-May-08 06:04N 29°46' W 095°06'0 0.0
2015-May-08 05:27N 29°46' W 095°06'0 0.0
2015-May-08 04:27N 29°46' W 095°06'0 0.0
2015-May-08 03:32N 29°46' W 095°06'0 0.0
2015-May-08 02:28N 29°46' W 095°06'0 0.0
2015-May-08 01:31N 29°46' W 095°06'0 0.0
2015-May-08 00:31N 29°46' W 095°06'0 0.0
2015-May-07 23:33N 29°46' W 095°06'0 0.0
2015-May-07 22:30N 29°46' W 095°06'0 0.0
2015-May-07 21:33N 29°46' W 095°06'0 0.0
2015-May-07 20:30N 29°46' W 095°06'0 0.0
2015-May-07 19:32N 29°46' W 095°06'0 0.0
2015-May-07 17:30N 29°46' W 095°06'0 0.0
2015-May-07 16:31N 29°46' W 095°06'2 1.6
2015-May-07 15:23N 29°47' W 095°04'4 5.3
2015-May-07 14:33N 29°44' W 095°08'6 6.4
2015-May-07 13:33N 29°44' W 095°15'4 0.3
2015-May-06 20:33N 29°45' W 095°10'5 4.5
2015-May-06 19:33N 29°46' W 095°05'1 0.3
2015-May-06 16:12N 29°46' W 095°07'1 1.3
2015-May-06 15:33N 29°46' W 095°06'0 0.0
2015-May-06 14:33N 29°46' W 095°06'0 0.0
2015-May-06 13:33N 29°46' W 095°06'0 0.0
2015-May-06 12:33N 29°46' W 095°06'1 0.5
2015-May-06 11:29N 29°46' W 095°06'0 0.1
2015-May-06 08:30N 29°46' W 095°06'0 0.0
2015-May-06 00:15N 29°46' W 095°06'0 0.0
2015-May-05 23:26N 29°46' W 095°06'0 0.0
2015-May-05 22:28N 29°46' W 095°06'0 0.0
2015-May-05 21:20N 29°46' W 095°06'0 0.0
2015-May-05 20:33N 29°46' W 095°06'0 0.0
2015-May-05 19:26N 29°46' W 095°06'0 0.0
2015-May-05 18:21N 29°46' W 095°06'1 0.3
2015-May-05 15:33N 29°46' W 095°05'3 0.6
2015-May-05 11:32N 29°44' W 095°03'6 6.6
2015-May-05 10:33N 29°39' W 094°58'7 7.1
2015-May-05 09:33N 29°33' W 094°55'8 7.5
2015-May-05 08:33N 29°27' W 094°50'  
Track history (hours):
 
Tides and Currents Weather Stations Pressure Air Temp Water Temp Dewpoint Dewpoint Depression Visibility Wind Speed Wind Dir Waves Ship Positions

Davis Sea

Owner: Kirby Offshore Marine, LLC, Staten Island, NY. More information available from US FCC via Universal Licensing System and Coast Guard Vessel Documentation Center.

Last reported at 2015-May-14 21:33 UTC. Time now 2015-May-30 18:38 UTC.
Position N 29°32' W 094°54'.
Warning: this ship's position is 15 days out of date.

; draft 2.6 m.

MMSI: 367129540.

Date/timePositionNaut miles runAvg speedWind from/ knotsBaromVisibWave heightAir tempDewpointWater temp
2015-May-14 21:33N 29°32' W 094°54'8 8.5
2015-May-14 20:33N 29°39' W 094°58'8 7.7
2015-May-14 19:33N 29°45' W 095°04'2 1.9
2015-May-14 18:22N 29°47' W 095°04'2 0.8
2015-May-14 16:19N 29°46' W 095°05'1 0.8
2015-May-14 15:33N 29°46' W 095°06'0 0.0
2015-May-14 14:33N 29°46' W 095°06'0 0.0
2015-May-14 13:29N 29°46' W 095°06'0 0.0
2015-May-14 12:32N 29°46' W 095°06'0 0.0
2015-May-14 10:32N 29°46' W 095°06'0 0.0
2015-May-14 09:33N 29°46' W 095°06'0 0.0
2015-May-14 08:26N 29°46' W 095°06'0 0.0
2015-May-14 07:30N 29°46' W 095°06'0 0.0
2015-May-14 06:24N 29°46' W 095°06'0 0.0
2015-May-14 05:16N 29°46' W 095°06'0 0.0
2015-May-14 04:12N 29°46' W 095°06'0 0.0
2015-May-14 03:28N 29°46' W 095°06'0 0.0
2015-May-14 02:32N 29°46' W 095°06'0 0.0
2015-May-14 01:25N 29°46' W 095°06'0 0.0
2015-May-13 20:31N 29°46' W 095°06'0 0.0
2015-May-13 19:23N 29°46' W 095°06'0 0.0
2015-May-13 17:24N 29°46' W 095°06'0 0.0
2015-May-13 15:30N 29°46' W 095°06'0 0.1
2015-May-13 13:33N 29°46' W 095°05'0 0.0
2015-May-13 09:32N 29°46' W 095°06'0 0.0
2015-May-13 08:33N 29°46' W 095°06'0 0.0
2015-May-13 07:33N 29°46' W 095°06'0 0.0
2015-May-13 06:33N 29°46' W 095°06'0 0.0
2015-May-13 05:33N 29°46' W 095°06'0 0.0
2015-May-13 04:31N 29°46' W 095°06'0 0.0
2015-May-13 03:33N 29°46' W 095°06'0 0.0
2015-May-13 00:32N 29°46' W 095°06'0 0.0
2015-May-12 23:33N 29°46' W 095°06'0 0.0
2015-May-12 22:22N 29°46' W 095°06'0 0.0
2015-May-12 20:29N 29°46' W 095°06'0 0.0
2015-May-12 19:30N 29°46' W 095°06'0 0.0
2015-May-12 18:14N 29°46' W 095°06'0 0.0
2015-May-12 17:09N 29°46' W 095°06'0 0.0
2015-May-12 16:28N 29°46' W 095°06'0 0.0
2015-May-12 14:30N 29°46' W 095°06'0 0.0
2015-May-12 13:29N 29°46' W 095°06'0 0.0
2015-May-12 12:28N 29°46' W 095°06'0 0.0
2015-May-12 11:32N 29°46' W 095°06'0 0.0
2015-May-12 10:33N 29°46' W 095°06'0 0.0
2015-May-12 09:31N 29°46' W 095°06'0 0.0
2015-May-12 06:29N 29°46' W 095°06'0 0.0
2015-May-12 05:30N 29°46' W 095°06'0 0.0
2015-May-12 04:30N 29°46' W 095°06'0 0.0
2015-May-12 03:32N 29°46' W 095°06'0 0.0
2015-May-12 02:24N 29°46' W 095°06'0 0.0
2015-May-11 18:32N 29°46' W 095°06'0 0.0
2015-May-11 17:31N 29°46' W 095°06'0 0.0
2015-May-11 16:32N 29°46' W 095°06'2 1.8
2015-May-11 15:32N 29°47' W 095°04'0 0.0
2015-May-11 14:19N 29°47' W 095°04'0 0.6
2015-May-11 13:28N 29°47' W 095°04'1 0.0
2015-May-09 20:23N 29°46' W 095°06'0 0.0
2015-May-09 19:24N 29°46' W 095°06'0 0.0
2015-May-09 18:27N 29°46' W 095°06'0 0.0
2015-May-09 17:28N 29°46' W 095°06'0 0.0
2015-May-09 16:08N 29°46' W 095°06'0 0.0
2015-May-09 15:33N 29°46' W 095°06'0 0.0
2015-May-09 14:30N 29°46' W 095°06'0 0.0
2015-May-09 13:33N 29°46' W 095°06'2 1.7
2015-May-09 12:28N 29°47' W 095°04'1 0.1
2015-May-08 22:31N 29°46' W 095°05'1 0.9
2015-May-08 21:33N 29°47' W 095°04'2 1.6
2015-May-08 20:30N 29°46' W 095°06'0 0.0
2015-May-08 19:12N 29°46' W 095°06'0 0.0
2015-May-08 18:06N 29°46' W 095°06'0 0.0
2015-May-08 17:32N 29°46' W 095°06'0 0.0
2015-May-08 16:33N 29°46' W 095°06'0 0.0
2015-May-08 15:30N 29°46' W 095°06'0 0.0
2015-May-08 14:33N 29°46' W 095°06'0 0.0
2015-May-08 13:27N 29°46' W 095°06'0 0.0
2015-May-08 12:33N 29°46' W 095°06'0 0.0
2015-May-08 11:27N 29°46' W 095°06'0 0.0
2015-May-08 10:28N 29°46' W 095°06'0 0.0
2015-May-08 09:33N 29°46' W 095°06'0 0.0
2015-May-08 08:33N 29°46' W 095°06'0 0.0
2015-May-08 07:33N 29°46' W 095°06'0 0.0
2015-May-08 06:04N 29°46' W 095°06'0 0.0
2015-May-08 05:27N 29°46' W 095°06'0 0.0
2015-May-08 04:27N 29°46' W 095°06'0 0.0
2015-May-08 03:32N 29°46' W 095°06'0 0.0
2015-May-08 02:28N 29°46' W 095°06'0 0.0
2015-May-08 01:31N 29°46' W 095°06'0 0.0
2015-May-08 00:31N 29°46' W 095°06'0 0.0
2015-May-07 23:33N 29°46' W 095°06'0 0.0
2015-May-07 22:30N 29°46' W 095°06'0 0.0
2015-May-07 21:33N 29°46' W 095°06'0 0.0
2015-May-07 20:30N 29°46' W 095°06'0 0.0
2015-May-07 19:32N 29°46' W 095°06'0 0.0
2015-May-07 17:30N 29°46' W 095°06'0 0.0
2015-May-07 16:31N 29°46' W 095°06'2 1.6
2015-May-07 15:23N 29°47' W 095°04'4 5.3
2015-May-07 14:33N 29°44' W 095°08'6 6.4
2015-May-07 13:33N 29°44' W 095°15'4 0.3
2015-May-06 20:33N 29°45' W 095°10'5 4.5
2015-May-06 19:33N 29°46' W 095°05'1 0.3
2015-May-06 16:12N 29°46' W 095°07'1 1.3
2015-May-06 15:33N 29°46' W 095°06'0 0.0
2015-May-06 14:33N 29°46' W 095°06'0 0.0
2015-May-06 13:33N 29°46' W 095°06'0 0.0
2015-May-06 12:33N 29°46' W 095°06'1 0.5
2015-May-06 11:29N 29°46' W 095°06'0 0.1
2015-May-06 08:30N 29°46' W 095°06'0 0.0
2015-May-06 00:15N 29°46' W 095°06'0 0.0
2015-May-05 23:26N 29°46' W 095°06'0 0.0
2015-May-05 22:28N 29°46' W 095°06'0 0.0
2015-May-05 21:20N 29°46' W 095°06'0 0.0
2015-May-05 20:33N 29°46' W 095°06'0 0.0
2015-May-05 19:26N 29°46' W 095°06'0 0.0
2015-May-05 18:21N 29°46' W 095°06'1 0.3
2015-May-05 15:33N 29°46' W 095°05'3 0.6
2015-May-05 11:32N 29°44' W 095°03'6 6.6
2015-May-05 10:33N 29°39' W 094°58'7 7.1
2015-May-05 09:33N 29°33' W 094°55'8 7.5
2015-May-05 08:33N 29°27' W 094°50'  

Dump ship's entire track history